sensor_id;sensor_type;location;lat;lon;timestamp;temperature;humidity
13446;DHT22;6795;51.232;3.764;2023-01-19T00:01:05;1.80;99.90
13446;DHT22;6795;51.232;3.764;2023-01-19T00:03:34;1.90;99.90
13446;DHT22;6795;51.232;3.764;2023-01-19T00:06:05;1.90;99.90
13446;DHT22;6795;51.232;3.764;2023-01-19T00:08:34;1.90;99.90
13446;DHT22;6795;51.232;3.764;2023-01-19T00:11:03;2.00;99.90
13446;DHT22;6795;51.232;3.764;2023-01-19T00:13:32;2.00;99.90
13446;DHT22;6795;51.232;3.764;2023-01-19T00:16:00;2.00;99.90
13446;DHT22;6795;51.232;3.764;2023-01-19T00:18:29;2.00;99.90
13446;DHT22;6795;51.232;3.764;2023-01-19T00:20:57;2.00;99.90
13446;DHT22;6795;51.232;3.764;2023-01-19T00:23:27;1.90;99.90
13446;DHT22;6795;51.232;3.764;2023-01-19T00:25:55;2.00;99.90
13446;DHT22;6795;51.232;3.764;2023-01-19T00:28:24;2.10;99.90
13446;DHT22;6795;51.232;3.764;2023-01-19T00:30:52;2.10;99.90
13446;DHT22;6795;51.232;3.764;2023-01-19T00:33:21;2.10;99.90
13446;DHT22;6795;51.232;3.764;2023-01-19T00:35:50;2.20;99.90
13446;DHT22;6795;51.232;3.764;2023-01-19T00:38:19;2.20;99.90
13446;DHT22;6795;51.232;3.764;2023-01-19T00:40:49;2.20;99.90
13446;DHT22;6795;51.232;3.764;2023-01-19T00:43:17;2.10;99.90
13446;DHT22;6795;51.232;3.764;2023-01-19T00:45:46;2.00;99.90
13446;DHT22;6795;51.232;3.764;2023-01-19T00:48:14;2.00;99.90
13446;DHT22;6795;51.232;3.764;2023-01-19T00:50:43;1.90;99.90
13446;DHT22;6795;51.232;3.764;2023-01-19T00:53:12;1.90;99.90
13446;DHT22;6795;51.232;3.764;2023-01-19T00:55:40;1.90;99.90
13446;DHT22;6795;51.232;3.764;2023-01-19T00:58:10;1.80;99.90
13446;DHT22;6795;51.232;3.764;2023-01-19T01:00:39;1.90;99.90
13446;DHT22;6795;51.232;3.764;2023-01-19T01:03:07;2.00;99.90
13446;DHT22;6795;51.232;3.764;2023-01-19T01:05:39;2.00;99.90
13446;DHT22;6795;51.232;3.764;2023-01-19T01:08:08;2.10;99.90
13446;DHT22;6795;51.232;3.764;2023-01-19T01:10:36;2.10;99.90
13446;DHT22;6795;51.232;3.764;2023-01-19T01:13:05;2.20;99.90
13446;DHT22;6795;51.232;3.764;2023-01-19T01:15:50;2.10;99.90
13446;DHT22;6795;51.232;3.764;2023-01-19T01:18:19;2.00;99.90
13446;DHT22;6795;51.232;3.764;2023-01-19T01:20:48;2.00;99.90
13446;DHT22;6795;51.232;3.764;2023-01-19T01:23:17;1.90;99.90
13446;DHT22;6795;51.232;3.764;2023-01-19T01:25:48;1.80;99.90
13446;DHT22;6795;51.232;3.764;2023-01-19T01:28:17;1.70;99.90
13446;DHT22;6795;51.232;3.764;2023-01-19T01:30:45;1.70;99.90
13446;DHT22;6795;51.232;3.764;2023-01-19T01:33:15;1.70;99.90
13446;DHT22;6795;51.232;3.764;2023-01-19T01:36:04;1.70;99.90
13446;DHT22;6795;51.232;3.764;2023-01-19T01:38:33;1.70;99.90
13446;DHT22;6795;51.232;3.764;2023-01-19T01:41:02;1.70;99.90
13446;DHT22;6795;51.232;3.764;2023-01-19T01:43:42;1.70;99.90
13446;DHT22;6795;51.232;3.764;2023-01-19T01:46:11;1.70;99.90
13446;DHT22;6795;51.232;3.764;2023-01-19T01:48:48;1.70;99.90
13446;DHT22;6795;51.232;3.764;2023-01-19T01:51:23;1.70;99.90
13446;DHT22;6795;51.232;3.764;2023-01-19T01:54:05;1.80;99.90
13446;DHT22;6795;51.232;3.764;2023-01-19T01:56:38;1.80;99.90
13446;DHT22;6795;51.232;3.764;2023-01-19T01:59:12;1.80;99.90
13446;DHT22;6795;51.232;3.764;2023-01-19T02:01:44;1.90;99.90
13446;DHT22;6795;51.232;3.764;2023-01-19T02:04:31;2.00;99.90
13446;DHT22;6795;51.232;3.764;2023-01-19T02:07:01;2.00;99.90
13446;DHT22;6795;51.232;3.764;2023-01-19T02:09:47;2.10;99.90
13446;DHT22;6795;51.232;3.764;2023-01-19T02:12:34;2.20;99.90
13446;DHT22;6795;51.232;3.764;2023-01-19T02:15:19;2.30;99.90
13446;DHT22;6795;51.232;3.764;2023-01-19T02:17:48;2.40;99.90
13446;DHT22;6795;51.232;3.764;2023-01-19T02:20:20;2.50;99.90
13446;DHT22;6795;51.232;3.764;2023-01-19T02:22:51;2.50;99.90
13446;DHT22;6795;51.232;3.764;2023-01-19T02:25:23;2.50;99.90
13446;DHT22;6795;51.232;3.764;2023-01-19T02:27:53;2.40;99.90
13446;DHT22;6795;51.232;3.764;2023-01-19T02:30:22;2.40;99.90
13446;DHT22;6795;51.232;3.764;2023-01-19T02:32:50;2.40;99.90
13446;DHT22;6795;51.232;3.764;2023-01-19T02:35:20;2.40;99.90
13446;DHT22;6795;51.232;3.764;2023-01-19T02:37:49;2.40;99.90
13446;DHT22;6795;51.232;3.764;2023-01-19T02:40:18;2.40;99.90
13446;DHT22;6795;51.232;3.764;2023-01-19T02:42:54;2.40;99.90
13446;DHT22;6795;51.232;3.764;2023-01-19T02:45:24;2.30;99.90
13446;DHT22;6795;51.232;3.764;2023-01-19T02:47:54;2.40;99.90
13446;DHT22;6795;51.232;3.764;2023-01-19T02:50:45;2.30;99.90
13446;DHT22;6795;51.232;3.764;2023-01-19T02:53:28;2.20;99.90
13446;DHT22;6795;51.232;3.764;2023-01-19T02:56:06;2.10;99.90
13446;DHT22;6795;51.232;3.764;2023-01-19T02:58:46;2.10;99.90
13446;DHT22;6795;51.232;3.764;2023-01-19T03:01:22;2.10;99.90
13446;DHT22;6795;51.232;3.764;2023-01-19T03:03:55;2.10;99.90
13446;DHT22;6795;51.232;3.764;2023-01-19T03:06:37;2.10;99.90
13446;DHT22;6795;51.232;3.764;2023-01-19T03:09:12;2.10;99.90
13446;DHT22;6795;51.232;3.764;2023-01-19T03:11:49;2.20;99.90
13446;DHT22;6795;51.232;3.764;2023-01-19T03:14:23;2.10;99.90
13446;DHT22;6795;51.232;3.764;2023-01-19T03:16:55;2.10;99.90
13446;DHT22;6795;51.232;3.764;2023-01-19T03:19:26;2.20;99.90
13446;DHT22;6795;51.232;3.764;2023-01-19T03:21:58;2.20;99.90
13446;DHT22;6795;51.232;3.764;2023-01-19T03:24:29;2.20;99.90
13446;DHT22;6795;51.232;3.764;2023-01-19T03:27:04;2.20;99.90
13446;DHT22;6795;51.232;3.764;2023-01-19T03:29:36;2.20;99.90
13446;DHT22;6795;51.232;3.764;2023-01-19T03:32:10;2.20;99.90
13446;DHT22;6795;51.232;3.764;2023-01-19T03:34:42;2.20;99.90
13446;DHT22;6795;51.232;3.764;2023-01-19T03:37:12;2.30;99.90
13446;DHT22;6795;51.232;3.764;2023-01-19T03:39:43;2.30;99.90
13446;DHT22;6795;51.232;3.764;2023-01-19T03:42:13;2.40;99.90
13446;DHT22;6795;51.232;3.764;2023-01-19T03:44:45;2.50;99.90
13446;DHT22;6795;51.232;3.764;2023-01-19T03:47:18;2.60;99.90
13446;DHT22;6795;51.232;3.764;2023-01-19T03:49:48;2.60;99.90
13446;DHT22;6795;51.232;3.764;2023-01-19T03:52:26;2.70;99.90
13446;DHT22;6795;51.232;3.764;2023-01-19T03:54:55;2.70;99.90
13446;DHT22;6795;51.232;3.764;2023-01-19T03:57:25;2.80;99.90
13446;DHT22;6795;51.232;3.764;2023-01-19T03:59:55;2.80;99.90
13446;DHT22;6795;51.232;3.764;2023-01-19T04:02:24;2.90;99.90
13446;DHT22;6795;51.232;3.764;2023-01-19T04:05:01;2.90;99.90
13446;DHT22;6795;51.232;3.764;2023-01-19T04:07:29;2.90;99.90
13446;DHT22;6795;51.232;3.764;2023-01-19T04:09:58;3.00;99.90
13446;DHT22;6795;51.232;3.764;2023-01-19T04:12:27;3.00;99.90
13446;DHT22;6795;51.232;3.764;2023-01-19T04:14:57;3.00;99.90
13446;DHT22;6795;51.232;3.764;2023-01-19T04:17:25;3.00;99.90
13446;DHT22;6795;51.232;3.764;2023-01-19T04:19:54;3.00;99.90
13446;DHT22;6795;51.232;3.764;2023-01-19T04:22:23;3.00;99.90
13446;DHT22;6795;51.232;3.764;2023-01-19T04:24:51;3.00;99.90
13446;DHT22;6795;51.232;3.764;2023-01-19T04:27:21;3.00;99.90
13446;DHT22;6795;51.232;3.764;2023-01-19T04:29:50;3.00;99.90
13446;DHT22;6795;51.232;3.764;2023-01-19T04:32:19;2.90;99.90
13446;DHT22;6795;51.232;3.764;2023-01-19T04:34:49;2.80;99.90
13446;DHT22;6795;51.232;3.764;2023-01-19T04:37:17;2.80;99.90
13446;DHT22;6795;51.232;3.764;2023-01-19T04:39:46;2.80;99.90
13446;DHT22;6795;51.232;3.764;2023-01-19T04:42:14;2.70;99.90
13446;DHT22;6795;51.232;3.764;2023-01-19T04:44:43;2.60;99.90
13446;DHT22;6795;51.232;3.764;2023-01-19T04:47:13;2.50;99.90
13446;DHT22;6795;51.232;3.764;2023-01-19T04:49:44;2.40;99.90
13446;DHT22;6795;51.232;3.764;2023-01-19T04:52:12;2.40;99.90
13446;DHT22;6795;51.232;3.764;2023-01-19T04:54:41;2.30;99.90
13446;DHT22;6795;51.232;3.764;2023-01-19T04:57:10;2.20;99.90
13446;DHT22;6795;51.232;3.764;2023-01-19T04:59:38;2.10;99.90
13446;DHT22;6795;51.232;3.764;2023-01-19T05:02:07;2.00;99.90
13446;DHT22;6795;51.232;3.764;2023-01-19T05:04:35;2.00;99.90
13446;DHT22;6795;51.232;3.764;2023-01-19T05:07:05;2.00;99.90
13446;DHT22;6795;51.232;3.764;2023-01-19T05:09:33;1.90;99.90
13446;DHT22;6795;51.232;3.764;2023-01-19T05:12:03;1.90;99.90
13446;DHT22;6795;51.232;3.764;2023-01-19T05:14:31;1.80;99.90
13446;DHT22;6795;51.232;3.764;2023-01-19T05:17:00;1.70;99.90
13446;DHT22;6795;51.232;3.764;2023-01-19T05:19:29;1.70;99.90
13446;DHT22;6795;51.232;3.764;2023-01-19T05:21:57;1.60;99.90
13446;DHT22;6795;51.232;3.764;2023-01-19T05:24:28;1.60;99.90
13446;DHT22;6795;51.232;3.764;2023-01-19T05:26:57;1.60;99.90
13446;DHT22;6795;51.232;3.764;2023-01-19T05:29:25;1.60;99.90
13446;DHT22;6795;51.232;3.764;2023-01-19T05:31:54;1.40;99.90
13446;DHT22;6795;51.232;3.764;2023-01-19T05:34:22;1.20;99.90
13446;DHT22;6795;51.232;3.764;2023-01-19T05:36:51;1.10;99.90
13446;DHT22;6795;51.232;3.764;2023-01-19T05:39:19;1.10;99.90
13446;DHT22;6795;51.232;3.764;2023-01-19T05:41:49;1.20;99.90
13446;DHT22;6795;51.232;3.764;2023-01-19T05:44:17;1.30;99.90
13446;DHT22;6795;51.232;3.764;2023-01-19T05:46:46;1.30;99.90
13446;DHT22;6795;51.232;3.764;2023-01-19T05:49:15;1.40;99.90
13446;DHT22;6795;51.232;3.764;2023-01-19T05:51:43;1.40;99.90
13446;DHT22;6795;51.232;3.764;2023-01-19T05:54:14;1.40;99.90
13446;DHT22;6795;51.232;3.764;2023-01-19T05:56:43;1.40;99.90
13446;DHT22;6795;51.232;3.764;2023-01-19T05:59:13;1.30;99.90
13446;DHT22;6795;51.232;3.764;2023-01-19T06:01:43;1.30;99.90
13446;DHT22;6795;51.232;3.764;2023-01-19T06:04:12;1.30;99.90
13446;DHT22;6795;51.232;3.764;2023-01-19T06:06:41;1.30;99.90
13446;DHT22;6795;51.232;3.764;2023-01-19T06:09:13;1.20;99.90
13446;DHT22;6795;51.232;3.764;2023-01-19T06:11:41;1.20;99.90
13446;DHT22;6795;51.232;3.764;2023-01-19T06:14:16;1.10;99.90
13446;DHT22;6795;51.232;3.764;2023-01-19T06:16:44;1.10;99.90
13446;DHT22;6795;51.232;3.764;2023-01-19T06:19:13;1.10;99.90
13446;DHT22;6795;51.232;3.764;2023-01-19T06:21:42;1.10;99.90
13446;DHT22;6795;51.232;3.764;2023-01-19T06:24:15;1.10;99.90
13446;DHT22;6795;51.232;3.764;2023-01-19T06:26:44;1.00;99.90
13446;DHT22;6795;51.232;3.764;2023-01-19T06:29:12;1.00;99.90
13446;DHT22;6795;51.232;3.764;2023-01-19T06:31:43;0.90;99.90
13446;DHT22;6795;51.232;3.764;2023-01-19T06:34:11;1.00;99.90
13446;DHT22;6795;51.232;3.764;2023-01-19T06:36:39;1.00;99.90
13446;DHT22;6795;51.232;3.764;2023-01-19T06:39:11;1.10;99.90
13446;DHT22;6795;51.232;3.764;2023-01-19T06:41:39;1.10;99.90
13446;DHT22;6795;51.232;3.764;2023-01-19T06:44:08;1.20;99.90
13446;DHT22;6795;51.232;3.764;2023-01-19T06:46:36;1.20;99.90
13446;DHT22;6795;51.232;3.764;2023-01-19T06:49:06;1.20;99.90
13446;DHT22;6795;51.232;3.764;2023-01-19T06:51:36;1.30;99.90
13446;DHT22;6795;51.232;3.764;2023-01-19T06:54:04;1.20;99.90
13446;DHT22;6795;51.232;3.764;2023-01-19T06:56:33;1.20;99.90
13446;DHT22;6795;51.232;3.764;2023-01-19T06:59:02;1.20;99.90
13446;DHT22;6795;51.232;3.764;2023-01-19T07:01:30;1.20;99.90
13446;DHT22;6795;51.232;3.764;2023-01-19T07:03:59;1.20;99.90
13446;DHT22;6795;51.232;3.764;2023-01-19T07:06:29;1.20;99.90
13446;DHT22;6795;51.232;3.764;2023-01-19T07:08:58;1.20;99.90
13446;DHT22;6795;51.232;3.764;2023-01-19T07:11:31;1.20;99.90
13446;DHT22;6795;51.232;3.764;2023-01-19T07:14:00;1.20;99.90
13446;DHT22;6795;51.232;3.764;2023-01-19T07:16:30;1.20;99.90
13446;DHT22;6795;51.232;3.764;2023-01-19T07:18:58;1.10;99.90
13446;DHT22;6795;51.232;3.764;2023-01-19T07:21:29;1.10;99.90
13446;DHT22;6795;51.232;3.764;2023-01-19T07:23:57;1.20;99.90
13446;DHT22;6795;51.232;3.764;2023-01-19T07:26:26;1.20;99.90
13446;DHT22;6795;51.232;3.764;2023-01-19T07:28:54;1.20;99.90
13446;DHT22;6795;51.232;3.764;2023-01-19T07:31:23;1.20;99.90
13446;DHT22;6795;51.232;3.764;2023-01-19T07:33:52;1.20;99.90
13446;DHT22;6795;51.232;3.764;2023-01-19T07:36:20;1.40;99.90
13446;DHT22;6795;51.232;3.764;2023-01-19T07:38:50;1.50;99.90
13446;DHT22;6795;51.232;3.764;2023-01-19T07:41:19;1.50;99.90
13446;DHT22;6795;51.232;3.764;2023-01-19T07:43:49;1.50;99.90
13446;DHT22;6795;51.232;3.764;2023-01-19T07:46:18;1.60;99.90
13446;DHT22;6795;51.232;3.764;2023-01-19T07:48:47;1.60;99.90
13446;DHT22;6795;51.232;3.764;2023-01-19T07:51:16;1.60;99.90
13446;DHT22;6795;51.232;3.764;2023-01-19T07:53:45;1.60;99.90
13446;DHT22;6795;51.232;3.764;2023-01-19T07:56:14;1.60;99.90
13446;DHT22;6795;51.232;3.764;2023-01-19T07:58:43;1.60;99.90
13446;DHT22;6795;51.232;3.764;2023-01-19T08:01:12;1.60;99.90
13446;DHT22;6795;51.232;3.764;2023-01-19T08:03:41;1.50;99.90
13446;DHT22;6795;51.232;3.764;2023-01-19T08:06:15;1.50;99.90
13446;DHT22;6795;51.232;3.764;2023-01-19T08:08:46;1.50;99.90
13446;DHT22;6795;51.232;3.764;2023-01-19T08:11:16;1.60;99.90
13446;DHT22;6795;51.232;3.764;2023-01-19T08:13:44;1.70;99.90
13446;DHT22;6795;51.232;3.764;2023-01-19T08:16:13;1.80;99.90
13446;DHT22;6795;51.232;3.764;2023-01-19T08:18:41;1.80;99.90
13446;DHT22;6795;51.232;3.764;2023-01-19T08:21:10;1.90;99.90
13446;DHT22;6795;51.232;3.764;2023-01-19T08:23:38;1.90;99.90
13446;DHT22;6795;51.232;3.764;2023-01-19T08:26:18;1.90;99.90
13446;DHT22;6795;51.232;3.764;2023-01-19T08:28:47;1.90;99.90
13446;DHT22;6795;51.232;3.764;2023-01-19T08:31:15;1.90;99.90
13446;DHT22;6795;51.232;3.764;2023-01-19T08:33:47;2.00;99.90
13446;DHT22;6795;51.232;3.764;2023-01-19T08:36:16;2.00;99.90
13446;DHT22;6795;51.232;3.764;2023-01-19T08:38:45;2.00;99.90
13446;DHT22;6795;51.232;3.764;2023-01-19T08:41:14;2.10;99.90
13446;DHT22;6795;51.232;3.764;2023-01-19T08:43:44;2.10;99.90
13446;DHT22;6795;51.232;3.764;2023-01-19T08:46:13;2.20;99.90
13446;DHT22;6795;51.232;3.764;2023-01-19T08:48:43;2.30;99.90
13446;DHT22;6795;51.232;3.764;2023-01-19T08:51:14;2.20;99.90
13446;DHT22;6795;51.232;3.764;2023-01-19T08:53:42;2.20;99.90
13446;DHT22;6795;51.232;3.764;2023-01-19T08:56:12;2.30;99.90
13446;DHT22;6795;51.232;3.764;2023-01-19T08:58:41;2.30;99.90
13446;DHT22;6795;51.232;3.764;2023-01-19T09:01:13;2.30;99.90
13446;DHT22;6795;51.232;3.764;2023-01-19T09:03:43;2.30;99.90
13446;DHT22;6795;51.232;3.764;2023-01-19T09:06:13;2.20;99.90
13446;DHT22;6795;51.232;3.764;2023-01-19T09:08:43;2.20;99.90
13446;DHT22;6795;51.232;3.764;2023-01-19T09:11:14;2.10;99.90
13446;DHT22;6795;51.232;3.764;2023-01-19T09:13:43;2.20;99.90
13446;DHT22;6795;51.232;3.764;2023-01-19T09:16:13;2.20;99.90
13446;DHT22;6795;51.232;3.764;2023-01-19T09:18:42;2.30;99.90
13446;DHT22;6795;51.232;3.764;2023-01-19T09:21:11;2.40;99.90
13446;DHT22;6795;51.232;3.764;2023-01-19T09:23:41;2.40;99.90
13446;DHT22;6795;51.232;3.764;2023-01-19T09:26:10;2.50;99.90
13446;DHT22;6795;51.232;3.764;2023-01-19T09:28:38;2.60;99.90
13446;DHT22;6795;51.232;3.764;2023-01-19T09:31:07;2.60;99.90
13446;DHT22;6795;51.232;3.764;2023-01-19T09:33:38;2.70;99.90
13446;DHT22;6795;51.232;3.764;2023-01-19T09:36:07;2.70;99.90
13446;DHT22;6795;51.232;3.764;2023-01-19T09:38:35;2.80;99.90
13446;DHT22;6795;51.232;3.764;2023-01-19T09:41:14;2.70;99.90
13446;DHT22;6795;51.232;3.764;2023-01-19T09:43:50;2.80;99.90
13446;DHT22;6795;51.232;3.764;2023-01-19T09:46:22;2.70;99.90
13446;DHT22;6795;51.232;3.764;2023-01-19T09:48:55;2.70;99.90
13446;DHT22;6795;51.232;3.764;2023-01-19T09:51:26;2.70;99.90
13446;DHT22;6795;51.232;3.764;2023-01-19T09:54:10;2.80;99.90
13446;DHT22;6795;51.232;3.764;2023-01-19T09:56:39;2.70;99.90
13446;DHT22;6795;51.232;3.764;2023-01-19T09:59:20;2.80;99.90
13446;DHT22;6795;51.232;3.764;2023-01-19T10:02:03;3.00;99.90
13446;DHT22;6795;51.232;3.764;2023-01-19T10:04:38;3.20;99.90
13446;DHT22;6795;51.232;3.764;2023-01-19T10:07:27;3.40;99.90
13446;DHT22;6795;51.232;3.764;2023-01-19T10:10:10;3.60;99.90
13446;DHT22;6795;51.232;3.764;2023-01-19T10:12:58;3.80;99.90
13446;DHT22;6795;51.232;3.764;2023-01-19T10:15:43;3.80;99.90
13446;DHT22;6795;51.232;3.764;2023-01-19T10:18:16;3.70;99.90
13446;DHT22;6795;51.232;3.764;2023-01-19T10:20:49;3.80;99.90
13446;DHT22;6795;51.232;3.764;2023-01-19T10:23:38;4.00;99.90
13446;DHT22;6795;51.232;3.764;2023-01-19T10:26:11;4.20;99.90
13446;DHT22;6795;51.232;3.764;2023-01-19T10:28:41;4.10;99.90
13446;DHT22;6795;51.232;3.764;2023-01-19T10:31:10;4.30;99.90
13446;DHT22;6795;51.232;3.764;2023-01-19T10:33:39;4.40;99.90
13446;DHT22;6795;51.232;3.764;2023-01-19T10:36:16;4.50;99.90
13446;DHT22;6795;51.232;3.764;2023-01-19T10:38:46;4.50;99.90
13446;DHT22;6795;51.232;3.764;2023-01-19T10:41:18;4.60;99.90
13446;DHT22;6795;51.232;3.764;2023-01-19T10:43:58;4.60;99.90
13446;DHT22;6795;51.232;3.764;2023-01-19T10:46:35;4.60;99.90
13446;DHT22;6795;51.232;3.764;2023-01-19T10:49:04;4.60;99.90
13446;DHT22;6795;51.232;3.764;2023-01-19T10:51:45;4.70;99.90
13446;DHT22;6795;51.232;3.764;2023-01-19T10:54:14;4.80;99.90
13446;DHT22;6795;51.232;3.764;2023-01-19T10:56:50;4.90;99.90
13446;DHT22;6795;51.232;3.764;2023-01-19T10:59:33;5.00;99.90
13446;DHT22;6795;51.232;3.764;2023-01-19T11:02:15;5.20;99.90
13446;DHT22;6795;51.232;3.764;2023-01-19T11:04:45;5.10;99.90
13446;DHT22;6795;51.232;3.764;2023-01-19T11:07:20;5.20;99.90
13446;DHT22;6795;51.232;3.764;2023-01-19T11:10:19;5.20;99.90
13446;DHT22;6795;51.232;3.764;2023-01-19T11:12:58;5.40;99.90
13446;DHT22;6795;51.232;3.764;2023-01-19T11:15:31;5.60;99.90
13446;DHT22;6795;51.232;3.764;2023-01-19T11:18:03;5.80;99.90
13446;DHT22;6795;51.232;3.764;2023-01-19T11:20:47;5.60;99.90
13446;DHT22;6795;51.232;3.764;2023-01-19T11:23:24;5.50;99.90
13446;DHT22;6795;51.232;3.764;2023-01-19T11:25:55;5.70;99.90
13446;DHT22;6795;51.232;3.764;2023-01-19T11:28:26;5.70;99.90
13446;DHT22;6795;51.232;3.764;2023-01-19T11:30:58;5.80;99.90
13446;DHT22;6795;51.232;3.764;2023-01-19T11:33:33;5.80;99.90
13446;DHT22;6795;51.232;3.764;2023-01-19T11:36:05;5.80;99.90
13446;DHT22;6795;51.232;3.764;2023-01-19T11:38:41;5.60;99.90
13446;DHT22;6795;51.232;3.764;2023-01-19T11:41:17;5.60;99.90
13446;DHT22;6795;51.232;3.764;2023-01-19T11:43:47;5.60;99.90
13446;DHT22;6795;51.232;3.764;2023-01-19T11:46:17;5.60;99.90
13446;DHT22;6795;51.232;3.764;2023-01-19T11:48:51;5.50;99.90
13446;DHT22;6795;51.232;3.764;2023-01-19T11:51:26;5.50;99.90
13446;DHT22;6795;51.232;3.764;2023-01-19T11:53:56;5.50;99.90
13446;DHT22;6795;51.232;3.764;2023-01-19T11:56:25;5.40;99.90
13446;DHT22;6795;51.232;3.764;2023-01-19T11:58:56;4.90;99.90
13446;DHT22;6795;51.232;3.764;2023-01-19T12:01:28;4.70;99.90
13446;DHT22;6795;51.232;3.764;2023-01-19T12:04:01;4.60;99.90
13446;DHT22;6795;51.232;3.764;2023-01-19T12:06:34;5.10;99.90
13446;DHT22;6795;51.232;3.764;2023-01-19T12:09:11;5.40;99.90
13446;DHT22;6795;51.232;3.764;2023-01-19T12:11:44;5.70;99.90
13446;DHT22;6795;51.232;3.764;2023-01-19T12:14:18;5.80;99.90
13446;DHT22;6795;51.232;3.764;2023-01-19T12:16:50;5.90;99.90
13446;DHT22;6795;51.232;3.764;2023-01-19T12:19:23;6.00;99.90
13446;DHT22;6795;51.232;3.764;2023-01-19T12:21:52;6.20;99.90
13446;DHT22;6795;51.232;3.764;2023-01-19T12:24:28;6.30;99.90
13446;DHT22;6795;51.232;3.764;2023-01-19T12:27:00;6.30;99.90
13446;DHT22;6795;51.232;3.764;2023-01-19T12:29:33;6.40;99.90
13446;DHT22;6795;51.232;3.764;2023-01-19T12:32:28;6.40;99.90
13446;DHT22;6795;51.232;3.764;2023-01-19T12:34:57;6.40;99.90
13446;DHT22;6795;51.232;3.764;2023-01-19T12:37:35;6.40;99.90
13446;DHT22;6795;51.232;3.764;2023-01-19T12:40:21;6.40;99.90
13446;DHT22;6795;51.232;3.764;2023-01-19T12:42:57;6.50;99.90
13446;DHT22;6795;51.232;3.764;2023-01-19T12:45:31;6.40;99.90
13446;DHT22;6795;51.232;3.764;2023-01-19T12:48:01;6.40;99.90
13446;DHT22;6795;51.232;3.764;2023-01-19T12:50:33;6.50;99.90
13446;DHT22;6795;51.232;3.764;2023-01-19T12:53:14;6.60;99.90
13446;DHT22;6795;51.232;3.764;2023-01-19T12:55:44;6.70;99.90
13446;DHT22;6795;51.232;3.764;2023-01-19T12:58:15;6.70;99.90
13446;DHT22;6795;51.232;3.764;2023-01-19T13:00:46;6.80;99.90
13446;DHT22;6795;51.232;3.764;2023-01-19T13:03:44;6.90;99.90
13446;DHT22;6795;51.232;3.764;2023-01-19T13:06:13;6.70;99.90
13446;DHT22;6795;51.232;3.764;2023-01-19T13:08:58;6.80;99.90
13446;DHT22;6795;51.232;3.764;2023-01-19T13:11:29;7.00;99.90
13446;DHT22;6795;51.232;3.764;2023-01-19T13:17:27;6.80;99.90
13446;DHT22;6795;51.232;3.764;2023-01-19T13:20:17;6.40;99.90
13446;DHT22;6795;51.232;3.764;2023-01-19T13:25:50;6.10;99.90
13446;DHT22;6795;51.232;3.764;2023-01-19T13:28:27;6.10;99.90
13446;DHT22;6795;51.232;3.764;2023-01-19T13:30:59;6.00;99.90
13446;DHT22;6795;51.232;3.764;2023-01-19T13:33:35;5.90;99.90
13446;DHT22;6795;51.232;3.764;2023-01-19T13:36:21;5.80;99.90
13446;DHT22;6795;51.232;3.764;2023-01-19T13:38:53;5.60;99.90
13446;DHT22;6795;51.232;3.764;2023-01-19T13:41:25;5.50;99.90
13446;DHT22;6795;51.232;3.764;2023-01-19T13:43:59;5.60;99.90
13446;DHT22;6795;51.232;3.764;2023-01-19T13:46:30;5.60;99.90
13446;DHT22;6795;51.232;3.764;2023-01-19T13:49:17;5.80;99.90
13446;DHT22;6795;51.232;3.764;2023-01-19T13:52:06;5.90;99.90
13446;DHT22;6795;51.232;3.764;2023-01-19T13:54:47;6.00;99.90
13446;DHT22;6795;51.232;3.764;2023-01-19T13:57:22;5.80;99.90
13446;DHT22;6795;51.232;3.764;2023-01-19T14:00:06;5.70;99.90
13446;DHT22;6795;51.232;3.764;2023-01-19T14:02:54;5.50;99.90
13446;DHT22;6795;51.232;3.764;2023-01-19T14:05:26;5.40;99.90
13446;DHT22;6795;51.232;3.764;2023-01-19T14:08:03;5.20;99.90
13446;DHT22;6795;51.232;3.764;2023-01-19T14:10:32;5.10;99.90
13446;DHT22;6795;51.232;3.764;2023-01-19T14:13:03;5.00;99.90
13446;DHT22;6795;51.232;3.764;2023-01-19T14:15:33;5.00;99.90
13446;DHT22;6795;51.232;3.764;2023-01-19T14:18:20;4.80;99.90
13446;DHT22;6795;51.232;3.764;2023-01-19T14:20:57;4.80;99.90
13446;DHT22;6795;51.232;3.764;2023-01-19T14:23:42;4.80;99.90
13446;DHT22;6795;51.232;3.764;2023-01-19T14:26:40;5.00;99.90
13446;DHT22;6795;51.232;3.764;2023-01-19T14:29:23;5.00;99.90
13446;DHT22;6795;51.232;3.764;2023-01-19T14:32:12;5.20;99.90
13446;DHT22;6795;51.232;3.764;2023-01-19T14:34:43;5.40;99.90
13446;DHT22;6795;51.232;3.764;2023-01-19T14:37:20;5.30;99.90
13446;DHT22;6795;51.232;3.764;2023-01-19T14:39:51;5.40;99.90
13446;DHT22;6795;51.232;3.764;2023-01-19T14:42:23;5.50;99.90
13446;DHT22;6795;51.232;3.764;2023-01-19T14:44:55;5.50;99.90
13446;DHT22;6795;51.232;3.764;2023-01-19T14:47:33;5.50;99.90
13446;DHT22;6795;51.232;3.764;2023-01-19T14:50:17;5.50;99.90
13446;DHT22;6795;51.232;3.764;2023-01-19T14:52:51;5.50;99.90
13446;DHT22;6795;51.232;3.764;2023-01-19T14:55:32;5.30;99.90
13446;DHT22;6795;51.232;3.764;2023-01-19T14:58:08;5.30;99.90
13446;DHT22;6795;51.232;3.764;2023-01-19T15:00:37;5.10;99.90
13446;DHT22;6795;51.232;3.764;2023-01-19T15:03:08;5.10;99.90
13446;DHT22;6795;51.232;3.764;2023-01-19T15:05:38;5.00;99.90
13446;DHT22;6795;51.232;3.764;2023-01-19T15:08:09;4.90;99.90
13446;DHT22;6795;51.232;3.764;2023-01-19T15:10:39;4.80;99.90
13446;DHT22;6795;51.232;3.764;2023-01-19T15:13:10;4.70;99.90
13446;DHT22;6795;51.232;3.764;2023-01-19T15:15:43;4.60;99.90
13446;DHT22;6795;51.232;3.764;2023-01-19T15:18:14;4.50;99.90
13446;DHT22;6795;51.232;3.764;2023-01-19T15:20:43;4.40;99.90
13446;DHT22;6795;51.232;3.764;2023-01-19T15:23:12;4.40;99.90
13446;DHT22;6795;51.232;3.764;2023-01-19T15:25:41;4.30;99.90
13446;DHT22;6795;51.232;3.764;2023-01-19T15:28:10;4.10;99.90
13446;DHT22;6795;51.232;3.764;2023-01-19T15:30:40;4.00;99.90
13446;DHT22;6795;51.232;3.764;2023-01-19T15:33:13;4.00;99.90
13446;DHT22;6795;51.232;3.764;2023-01-19T15:35:44;3.90;99.90
13446;DHT22;6795;51.232;3.764;2023-01-19T15:38:12;4.00;99.90
13446;DHT22;6795;51.232;3.764;2023-01-19T15:40:42;4.00;99.90
13446;DHT22;6795;51.232;3.764;2023-01-19T15:43:13;4.00;99.90
13446;DHT22;6795;51.232;3.764;2023-01-19T15:45:43;4.00;99.90
13446;DHT22;6795;51.232;3.764;2023-01-19T15:48:15;3.90;99.90
13446;DHT22;6795;51.232;3.764;2023-01-19T15:50:45;3.80;99.90
13446;DHT22;6795;51.232;3.764;2023-01-19T15:53:16;3.80;99.90
13446;DHT22;6795;51.232;3.764;2023-01-19T15:55:48;3.70;99.90
13446;DHT22;6795;51.232;3.764;2023-01-19T15:58:17;3.70;99.90
13446;DHT22;6795;51.232;3.764;2023-01-19T16:00:52;3.60;99.90
13446;DHT22;6795;51.232;3.764;2023-01-19T16:03:26;3.50;99.90
13446;DHT22;6795;51.232;3.764;2023-01-19T16:05:54;3.40;99.90
13446;DHT22;6795;51.232;3.764;2023-01-19T16:08:23;3.40;99.90
13446;DHT22;6795;51.232;3.764;2023-01-19T16:10:51;3.40;99.90
13446;DHT22;6795;51.232;3.764;2023-01-19T16:13:20;3.30;99.90
13446;DHT22;6795;51.232;3.764;2023-01-19T16:15:48;3.30;99.90
13446;DHT22;6795;51.232;3.764;2023-01-19T16:18:17;3.20;99.90
13446;DHT22;6795;51.232;3.764;2023-01-19T16:20:46;3.20;99.90
13446;DHT22;6795;51.232;3.764;2023-01-19T16:23:15;3.20;99.90
13446;DHT22;6795;51.232;3.764;2023-01-19T16:25:43;3.10;99.90
13446;DHT22;6795;51.232;3.764;2023-01-19T16:28:12;2.90;99.90
13446;DHT22;6795;51.232;3.764;2023-01-19T16:30:41;2.90;99.90
13446;DHT22;6795;51.232;3.764;2023-01-19T16:33:10;2.90;99.90
13446;DHT22;6795;51.232;3.764;2023-01-19T16:35:39;2.80;99.90
13446;DHT22;6795;51.232;3.764;2023-01-19T16:38:09;2.80;99.90
13446;DHT22;6795;51.232;3.764;2023-01-19T16:40:38;2.90;99.90